Airfield :
LOGIN :

Register | Disclaimer

   EN    FR    IT 

 










Legend :    VFR   Marginal VFR   IFR   Intensive IFR   Very Intensive IFR
Visi :
Ceiling :
>= 8 km
>= 3000ft
5 to 8 km
1000 to 3000 ft
1500m to 5 km
500 to 1000 ft
800 to 1500m
200 to 500 ft
< 800m
< 200 ft
Symbols :   Thunderstorms  Fog  Heavy snow  Heavy precipitations  Wind > 20 kt
SIGMETs :     Misc.  Thunderstorms  Icing  Turbulence  Mountain Waves  Volcanic Ashes






- Airport Elevation : 247 ft
- IATA code : BLL


EKBI - Billund

CURRENT METAR :
  • 221820Z AUTO 23009KT 9999 BKN032/// 11/07 Q1020

EXPIRED METARs :
  • 221750Z AUTO 23009KT 9999 OVC027/// 11/07 Q1020
  • 221720Z AUTO 24008KT 9999 OVC032/// 11/07 Q1020
  • 221650Z AUTO 23009KT 9999 BKN032/// 11/07 Q1020
  • 221620Z AUTO 24008KT 9999 BKN024/// 11/08 Q1019
  • 221550Z AUTO 24009KT 9999 BKN022/// 11/09 Q1019

TAF TAF EKBI
Valid from the 22 at 18:00 until the 23 at 18:00 UTC


221708Z 2218/2318 24008KT 9999 BKN025



MET'MAP, your aeronautical weather chart ! - Copyright ORBIFLY December 2007 - Disclaimer

ORBIFLY MET'MAP TEAM :

Programming & Development : Alexandra Zaïnal
Concept & Development : Baudouin d'Aumeries
Co-Development & Prog : Marc-Olivier Méhu
Technical & hardware support : Manuel Goepfert

Contact : metmap@orbifly.com




SOURCES & CREDITS :

   NOAA